createdAt,value
2022-12-01T00:11:53.044Z,4.00
2022-12-01T00:34:25.511Z,3.90
2022-12-01T00:41:53.900Z,3.90
2022-12-01T01:45:27.312Z,3.40
2022-12-01T01:50:28.050Z,3.70
2022-12-01T01:53:16.747Z,3.70
2022-12-01T01:58:13.446Z,3.40
2022-12-01T02:00:44.325Z,3.60
2022-12-01T02:03:17.047Z,3.60
2022-12-01T02:11:23.598Z,3.60
2022-12-01T02:14:07.599Z,3.50
2022-12-01T02:17:03.436Z,3.60
2022-12-01T02:19:57.007Z,3.20
2022-12-01T02:22:31.994Z,3.60
2022-12-01T02:25:27.246Z,3.40
2022-12-01T02:31:06.870Z,3.40
2022-12-01T02:33:50.547Z,3.50
2022-12-01T02:36:36.483Z,3.40
2022-12-01T02:39:28.344Z,2.30
2022-12-01T02:42:32.808Z,3.50
2022-12-01T02:45:05.978Z,3.40
2022-12-01T02:47:35.583Z,3.40
2022-12-01T02:50:06.169Z,3.40
2022-12-01T02:52:35.945Z,3.40
2022-12-01T03:00:02.230Z,3.40
2022-12-01T03:03:04.137Z,3.50
2022-12-01T03:05:58.290Z,3.70
2022-12-01T03:09:10.854Z,3.40
2022-12-01T03:12:10.463Z,3.50
2022-12-01T03:14:52.903Z,3.00
2022-12-01T03:17:32.227Z,3.60
2022-12-01T03:20:39.539Z,3.30
2022-12-01T03:23:14.734Z,3.40
2022-12-01T03:25:47.849Z,3.40
2022-12-01T03:28:23.202Z,3.30
2022-12-01T03:30:57.271Z,3.20
2022-12-01T03:33:39.182Z,3.30
2022-12-01T03:36:31.139Z,3.20
2022-12-01T03:39:04.726Z,2.90
2022-12-01T03:41:46.639Z,2.90
2022-12-01T03:44:24.198Z,2.90
2022-12-01T03:52:38.290Z,2.80
2022-12-01T03:55:29.020Z,2.70
2022-12-01T03:58:07.544Z,2.70
2022-12-01T04:03:06.061Z,2.80
2022-12-01T04:05:36.066Z,2.70
2022-12-01T04:15:29.609Z,2.80
2022-12-01T04:52:38.817Z,2.30
2022-12-01T04:55:08.473Z,2.40
2022-12-01T05:02:44.251Z,2.20
2022-12-01T05:05:14.136Z,2.20
2022-12-01T05:45:35.397Z,2.30
2022-12-01T05:48:04.140Z,2.30
2022-12-01T08:24:06.613Z,1.00
2022-12-01T08:31:35.895Z,2.20
2022-12-01T08:34:07.663Z,2.20
2022-12-01T08:36:37.323Z,2.30
2022-12-01T08:46:35.728Z,2.30
2022-12-01T08:49:07.457Z,2.30
2022-12-01T08:56:38.449Z,2.20
2022-12-01T09:04:26.539Z,2.00
2022-12-01T09:06:56.645Z,2.10
2022-12-01T09:09:28.728Z,2.10
2022-12-01T09:34:20.505Z,2.30
2022-12-01T09:36:49.404Z,2.30
2022-12-01T09:39:20.791Z,2.20
2022-12-01T09:41:57.999Z,2.30
2022-12-01T09:44:48.236Z,2.40
2022-12-01T09:50:05.761Z,2.40
2022-12-01T09:52:47.889Z,2.40
2022-12-01T09:55:20.254Z,2.40
2022-12-01T09:57:51.436Z,2.40
2022-12-01T10:00:25.651Z,2.40
2022-12-01T10:03:23.780Z,2.40
2022-12-01T10:09:14.283Z,2.30
2022-12-01T10:11:45.750Z,2.40
2022-12-01T10:14:21.150Z,2.50
2022-12-01T10:17:30.774Z,2.50
2022-12-01T10:20:28.397Z,2.60
2022-12-01T10:26:01.482Z,2.70
2022-12-01T10:31:35.182Z,2.80
2022-12-01T10:34:08.263Z,2.80
2022-12-01T10:39:08.370Z,2.80
2022-12-01T10:41:38.980Z,2.80
2022-12-01T10:44:08.415Z,2.70
2022-12-01T10:46:48.138Z,2.80
2022-12-01T10:49:18.773Z,2.60
2022-12-01T10:51:58.253Z,2.70
2022-12-01T10:54:38.989Z,2.70
2022-12-01T10:57:16.121Z,2.60
2022-12-01T11:00:09.849Z,2.40
2022-12-01T11:05:32.092Z,2.70
2022-12-01T11:10:32.118Z,2.60
2022-12-01T11:13:21.875Z,2.70
2022-12-01T11:15:56.763Z,2.60
2022-12-01T11:21:09.478Z,2.60
2022-12-01T11:23:49.692Z,2.50
2022-12-01T11:26:32.259Z,2.50
2022-12-01T11:29:22.295Z,2.40
2022-12-01T11:31:52.880Z,2.30
2022-12-01T11:34:27.557Z,2.60
2022-12-01T11:37:02.787Z,2.40
2022-12-01T11:39:41.374Z,2.50
2022-12-01T11:44:51.979Z,2.50
2022-12-01T11:47:26.748Z,2.60
2022-12-01T11:50:06.616Z,2.60
2022-12-01T11:52:40.512Z,2.70
2022-12-01T11:55:15.204Z,2.70
2022-12-01T11:57:48.117Z,2.70
2022-12-01T12:00:23.329Z,2.70
2022-12-01T12:03:00.537Z,2.60
2022-12-01T12:14:27.601Z,2.70
2022-12-01T12:20:31.438Z,-0.30
2022-12-01T12:23:35.915Z,2.60
2022-12-01T12:26:28.448Z,2.90
2022-12-01T12:29:51.112Z,2.60
2022-12-01T12:35:35.968Z,3.40
2022-12-01T12:38:28.193Z,2.60
2022-12-01T12:41:33.232Z,2.70
2022-12-01T12:44:50.167Z,2.70
2022-12-01T12:50:19.834Z,2.60
2022-12-01T12:52:55.189Z,2.60
2022-12-01T12:55:41.432Z,2.70
2022-12-01T12:58:26.519Z,2.60
2022-12-01T13:01:15.451Z,3.00
2022-12-01T13:04:13.136Z,2.70
2022-12-01T13:07:00.147Z,2.70
2022-12-01T13:09:43.043Z,2.70
2022-12-01T13:12:18.388Z,2.70
2022-12-01T13:15:05.363Z,2.70
2022-12-01T13:17:49.613Z,2.60
2022-12-01T13:20:22.068Z,2.60
2022-12-01T13:22:51.235Z,2.60
2022-12-01T13:25:38.230Z,2.80
2022-12-01T13:28:21.591Z,2.50
2022-12-01T13:31:07.286Z,3.00
2022-12-01T13:33:37.795Z,2.70
2022-12-01T13:36:45.323Z,2.80
2022-12-01T13:39:23.293Z,2.80
2022-12-01T13:42:08.248Z,2.80
2022-12-01T13:44:44.408Z,2.80
2022-12-01T13:49:53.262Z,3.00
2022-12-01T13:55:09.288Z,2.40
2022-12-01T13:58:00.155Z,2.60
2022-12-01T14:00:34.708Z,2.80
2022-12-01T14:03:33.812Z,2.80
2022-12-01T14:06:11.815Z,2.90
2022-12-01T14:09:16.184Z,2.70
2022-12-01T14:12:23.558Z,2.90
2022-12-01T14:15:02.372Z,3.00
2022-12-01T14:17:35.674Z,3.00
2022-12-01T14:20:16.580Z,3.00
2022-12-01T14:22:57.880Z,2.90
2022-12-01T14:25:30.576Z,2.90
2022-12-01T14:28:04.731Z,2.80
2022-12-01T14:30:41.935Z,3.00
2022-12-01T14:33:41.143Z,2.70
2022-12-01T14:36:35.857Z,2.60
2022-12-01T14:39:19.777Z,2.60
2022-12-01T14:41:53.320Z,2.70
2022-12-01T14:44:44.045Z,2.80
2022-12-01T14:52:45.015Z,2.70
2022-12-01T14:55:42.757Z,2.50
2022-12-01T14:58:23.150Z,2.90
2022-12-01T15:01:03.909Z,2.80
2022-12-01T15:03:43.085Z,2.80
2022-12-01T15:06:18.500Z,2.90
2022-12-01T15:19:43.971Z,3.00
2022-12-01T15:22:18.066Z,2.80
2022-12-01T15:27:29.535Z,2.60
2022-12-01T15:30:03.401Z,2.60
2022-12-01T15:32:33.970Z,2.60
2022-12-01T15:37:46.203Z,2.60
2022-12-01T15:43:41.403Z,2.50
2022-12-01T15:46:19.275Z,2.60
2022-12-01T15:48:47.459Z,2.80
2022-12-01T15:51:26.717Z,2.70
2022-12-01T15:53:59.642Z,2.60
2022-12-01T15:56:38.938Z,2.60
2022-12-01T15:59:25.236Z,2.40
2022-12-01T16:04:28.744Z,2.60
2022-12-01T16:07:04.550Z,2.90
2022-12-01T16:09:45.655Z,2.60
2022-12-01T16:15:03.027Z,2.60
2022-12-01T16:17:45.471Z,2.60
2022-12-01T16:20:26.849Z,2.50
2022-12-01T16:23:01.951Z,2.60
2022-12-01T16:25:45.691Z,2.60
2022-12-01T16:28:25.335Z,2.80
2022-12-01T16:30:54.994Z,2.60
2022-12-01T16:33:26.713Z,2.80
2022-12-01T16:38:26.757Z,2.60
2022-12-01T16:41:00.274Z,2.60
2022-12-01T16:43:30.227Z,2.50
2022-12-01T16:46:05.325Z,2.60
2022-12-01T16:51:05.909Z,2.60
2022-12-01T16:56:03.729Z,2.50
2022-12-01T17:03:29.861Z,2.40
2022-12-01T17:06:01.461Z,2.40
2022-12-01T17:15:56.639Z,2.30
2022-12-01T17:18:26.500Z,2.40
2022-12-01T17:21:13.154Z,2.40
2022-12-01T17:26:16.857Z,2.40
2022-12-01T17:36:16.147Z,2.50
2022-12-01T17:38:46.642Z,2.50
2022-12-01T17:41:24.822Z,2.50
2022-12-01T17:56:17.886Z,2.20
2022-12-01T18:01:23.084Z,2.20
2022-12-01T18:13:51.150Z,2.20
2022-12-01T18:16:24.822Z,2.20
2022-12-01T18:21:26.394Z,2.20
2022-12-01T18:23:58.463Z,2.20
2022-12-01T18:26:29.081Z,2.20
2022-12-01T18:29:08.416Z,2.10
2022-12-01T18:34:08.072Z,2.10
2022-12-01T18:36:39.227Z,2.10
2022-12-01T18:39:09.517Z,2.10
2022-12-01T18:51:37.630Z,2.00
2022-12-01T18:54:08.364Z,2.00
2022-12-01T18:59:09.111Z,2.00
2022-12-01T19:01:41.283Z,2.00
2022-12-01T19:06:41.140Z,2.10
2022-12-01T19:09:12.042Z,2.00
2022-12-01T19:11:41.699Z,2.10
2022-12-01T19:14:18.341Z,2.00
2022-12-01T19:49:02.988Z,2.00
2022-12-01T19:51:36.183Z,2.00
2022-12-01T19:54:07.378Z,2.00
2022-12-01T20:06:32.728Z,2.00
2022-12-01T20:09:05.989Z,2.10
2022-12-01T20:14:05.768Z,2.10
2022-12-01T20:16:45.255Z,2.10
2022-12-01T20:21:44.213Z,2.00
2022-12-01T20:24:18.653Z,2.00
2022-12-01T20:26:51.250Z,1.90
2022-12-01T20:29:27.182Z,2.00
2022-12-01T20:31:58.411Z,2.00
2022-12-01T20:34:34.144Z,2.10
2022-12-01T21:17:41.187Z,2.20
2022-12-01T21:20:33.292Z,2.20
2022-12-01T21:23:21.748Z,2.30
2022-12-01T21:25:54.942Z,2.20
2022-12-01T21:28:28.030Z,2.30
2022-12-01T21:31:15.300Z,2.20
2022-12-01T21:36:24.063Z,2.20
2022-12-01T21:39:12.581Z,2.20
2022-12-01T21:44:24.411Z,2.20
2022-12-01T21:47:05.374Z,2.20
2022-12-01T21:49:40.457Z,2.20
2022-12-01T21:52:21.765Z,2.20
2022-12-01T21:57:49.445Z,2.20
2022-12-01T22:00:33.748Z,2.20
2022-12-01T22:03:20.318Z,2.20
2022-12-01T22:06:21.311Z,2.20
2022-12-01T22:08:46.399Z,2.20
2022-12-01T22:11:27.885Z,2.30
2022-12-01T22:14:23.202Z,2.30
2022-12-01T22:17:18.807Z,2.30
2022-12-01T22:19:58.250Z,2.20
2022-12-01T22:22:29.337Z,2.40
2022-12-01T22:25:22.020Z,2.40
2022-12-01T22:30:23.336Z,2.20
2022-12-01T22:32:58.389Z,2.20
2022-12-01T22:35:51.977Z,2.20
2022-12-01T22:38:39.961Z,2.30
2022-12-01T22:41:16.010Z,2.30
2022-12-01T22:43:59.573Z,2.30
2022-12-01T22:49:07.681Z,2.30
2022-12-01T22:51:41.451Z,2.30
2022-12-01T22:54:15.319Z,2.30
2022-12-01T22:56:47.286Z,2.30
2022-12-01T22:59:33.636Z,2.30
2022-12-01T23:02:24.169Z,2.40
2022-12-01T23:05:05.401Z,2.30
2022-12-01T23:07:41.491Z,2.40
2022-12-01T23:10:13.856Z,2.30
2022-12-01T23:15:39.470Z,2.30
2022-12-01T23:18:26.908Z,2.30
2022-12-01T23:21:04.613Z,2.20
2022-12-01T23:23:38.386Z,2.20
2022-12-01T23:26:09.711Z,2.10
2022-12-01T23:28:40.695Z,2.20
2022-12-01T23:31:10.617Z,2.10
2022-12-01T23:36:23.165Z,2.10
2022-12-01T23:38:56.056Z,2.10
2022-12-01T23:41:37.332Z,2.20
2022-12-01T23:44:18.436Z,2.10
2022-12-01T23:49:22.004Z,2.20
2022-12-01T23:51:56.245Z,2.20
2022-12-01T23:54:34.982Z,2.20
2022-12-01T23:57:23.505Z,2.30
